Time;durP1;ratioP1;P1;durP2;ratioP2;P2;SDS_P1;SDS_P2;PMS_P1;PMS_P2;Temp;Humidity;BMP_temperature;BMP_pressure;BME280_temperature;BME280_humidity;BME280_pressure;Samples;Min_cycle;Max_cycle;Signal;HPM_P1;HPM_P2
2023/04/07 00:00:49;;;;;;;7.90;6.60;;;;;;;7.66;76.31;100980.12;106101;1254;63638;-88
2023/04/07 00:03:23;;;;;;;8.30;6.60;;;;;;;7.66;76.30;100980.46;105963;1250;73802;-88
2023/04/07 00:05:51;;;;;;;7.90;5.90;;;;;;;7.62;76.11;100983.09;105955;1250;60640;-89
2023/04/07 00:08:20;;;;;;;7.00;6.30;;;;;;;7.58;75.79;100987.09;106025;1250;61337;-87
2023/04/07 00:10:48;;;;;;;7.60;6.90;;;;;;;7.53;75.96;100980.84;106010;1253;74847;-89
2023/04/07 00:13:17;;;;;;;8.80;6.10;;;;;;;7.49;75.99;100985.54;106727;1250;64741;-90
2023/04/07 00:15:45;;;;;;;6.90;5.50;;;;;;;7.44;76.36;100982.92;106048;1250;72648;-87
2023/04/07 00:18:16;;;;;;;5.80;4.40;;;;;;;7.45;76.39;100981.88;106048;1250;62998;-90
2023/04/07 00:20:44;;;;;;;6.00;5.20;;;;;;;7.47;76.19;100983.17;106109;1254;60430;-88
2023/04/07 00:23:12;;;;;;;6.10;5.50;;;;;;;7.48;76.08;100986.63;106035;1251;74878;-87
2023/04/07 00:25:42;;;;;;;8.10;5.60;;;;;;;7.50;76.13;100990.59;106091;1254;65027;-86
2023/04/07 00:28:11;;;;;;;5.60;4.90;;;;;;;7.52;75.74;100989.60;106023;1250;73630;-86
2023/04/07 00:30:43;;;;;;;6.30;5.60;;;;;;;7.51;75.19;100992.24;106854;1250;61248;-87
2023/04/07 00:33:12;;;;;;;7.80;6.20;;;;;;;7.48;75.30;100989.41;106770;1250;61176;-87
2023/04/07 00:35:40;;;;;;;7.60;6.60;;;;;;;7.49;75.40;100986.23;106045;1250;73767;-86
2023/04/07 00:38:09;;;;;;;10.30;6.80;;;;;;;7.52;75.66;100985.27;105956;1252;64552;-86
2023/04/07 00:40:38;;;;;;;7.90;5.80;;;;;;;7.49;75.84;100982.23;106199;1250;73732;-84
2023/04/07 00:43:10;;;;;;;5.70;5.10;;;;;;;7.45;75.88;100982.40;106119;1250;62135;-85
2023/04/07 00:45:38;;;;;;;6.50;4.90;;;;;;;7.40;75.87;100983.28;106221;1250;61465;-88
2023/04/07 00:48:07;;;;;;;5.90;5.20;;;;;;;7.36;75.54;100983.63;106015;1251;73811;-88
2023/04/07 00:50:36;;;;;;;7.20;5.70;;;;;;;7.32;75.83;100984.66;107209;1255;64919;-88
2023/04/07 00:53:04;;;;;;;6.80;6.10;;;;;;;7.31;76.16;100985.94;105988;1256;73662;-89
2023/04/07 00:55:34;;;;;;;7.70;5.50;;;;;;;7.30;76.25;100979.36;106023;1254;61548;-89
2023/04/07 00:58:04;;;;;;;7.70;6.60;;;;;;;7.33;76.54;100981.30;106088;1250;60942;-88
2023/04/07 01:00:37;;;;;;;7.10;6.30;;;;;;;7.37;76.16;100979.75;105978;1250;74850;-86
2023/04/07 01:03:12;;;;;;;7.00;5.90;;;;;;;7.38;75.90;100983.90;106161;1251;64484;-86
2023/04/07 01:05:45;;;;;;;9.70;7.10;;;;;;;7.37;75.85;100984.81;106046;1250;73342;-88
2023/04/07 01:08:20;;;;;;;7.50;6.80;;;;;;;7.34;75.57;100985.83;106774;1250;60516;-87
2023/04/07 01:10:48;;;;;;;7.20;6.30;;;;;;;7.26;75.33;100988.73;106222;1250;61060;-88
2023/04/07 01:13:25;;;;;;;9.00;7.20;;;;;;;7.18;75.24;100987.84;106523;1250;74758;-86
2023/04/07 01:16:00;;;;;;;8.10;7.20;;;;;;;7.15;75.48;100986.73;107817;1250;63735;-86
2023/04/07 01:18:33;;;;;;;8.20;6.10;;;;;;;7.15;75.38;100986.92;106540;1251;72720;-85
2023/04/07 01:21:13;;;;;;;7.00;5.90;;;;;;;7.15;75.55;100981.70;106211;1255;62104;-88
2023/04/07 01:24:05;;;;;;;8.60;6.10;;;;;;;7.16;75.58;100979.39;105995;1250;61246;-87
2023/04/07 01:26:35;;;;;;;7.50;6.60;;;;;;;7.19;75.27;100981.38;105984;1250;73897;-87
2023/04/07 01:29:25;;;;;;;6.00;5.30;;;;;;;7.23;75.69;100980.52;106654;1250;63771;-86
2023/04/07 01:31:53;;;;;;;6.90;6.10;;;;;;;7.23;75.13;100977.73;105909;1251;71513;-86
2023/04/07 01:34:23;;;;;;;6.40;5.80;;;;;;;7.21;75.01;100980.08;105903;1251;61142;-85
2023/04/07 01:36:53;;;;;;;6.20;5.60;;;;;;;7.19;74.73;100980.85;105995;1250;61033;-88
2023/04/07 01:39:22;;;;;;;6.30;5.70;;;;;;;7.18;74.82;100982.28;105999;1251;74839;-85
2023/04/07 01:41:51;;;;;;;7.50;6.20;;;;;;;7.16;74.92;100981.13;106106;1253;64832;-84
2023/04/07 01:44:20;;;;;;;5.60;5.10;;;;;;;7.14;75.49;100983.11;106594;1250;73846;-87
2023/04/07 01:46:52;;;;;;;7.30;6.50;;;;;;;7.12;75.62;100989.30;106313;1251;62179;-86
2023/04/07 01:49:20;;;;;;;6.60;5.80;;;;;;;7.09;76.02;100986.11;106735;1250;60736;-85
2023/04/07 01:51:50;;;;;;;5.50;4.80;;;;;;;7.07;76.22;100988.98;107272;1254;73808;-84
2023/04/07 01:54:19;;;;;;;5.30;4.70;;;;;;;7.09;76.19;100990.81;106550;1250;64756;-86
2023/04/07 01:56:48;;;;;;;5.90;5.40;;;;;;;7.08;76.21;100991.38;106165;1256;73680;-84
2023/04/07 01:59:18;;;;;;;9.00;5.20;;;;;;;7.09;76.84;100993.06;106363;1256;61197;-86
2023/04/07 02:01:47;;;;;;;6.50;5.50;;;;;;;7.13;77.13;100993.09;106053;1251;61321;-87
2023/04/07 02:04:24;;;;;;;6.30;5.70;;;;;;;7.18;76.86;100992.17;105859;1251;74840;-84
2023/04/07 02:06:55;;;;;;;9.10;5.30;;;;;;;7.22;76.72;100993.39;106271;1250;64621;-84
2023/04/07 02:09:31;;;;;;;7.30;5.70;;;;;;;7.28;76.43;100991.48;106327;1250;72612;-87
2023/04/07 02:12:01;;;;;;;5.50;5.00;;;;;;;7.25;76.29;100994.15;105877;1252;60581;-84
2023/04/07 02:14:31;;;;;;;11.40;5.60;;;;;;;7.20;76.30;100994.00;106041;1250;60617;-88
2023/04/07 02:17:09;;;;;;;6.50;5.70;;;;;;;7.16;76.31;100993.49;106062;1250;74562;-90
2023/04/07 02:19:40;;;;;;;9.80;5.60;;;;;;;7.13;76.68;100993.09;106023;1257;64866;-86
2023/04/07 02:22:09;;;;;;;5.20;4.20;;;;;;;7.11;76.81;100993.88;106771;1255;72100;-90
2023/04/07 02:24:42;;;;;;;5.40;4.10;;;;;;;7.12;77.09;100993.46;105861;1256;62865;-87
2023/04/07 02:27:10;;;;;;;5.80;5.10;;;;;;;7.16;77.20;100987.41;106180;1254;60375;-89
2023/04/07 02:29:38;;;;;;;5.50;4.80;;;;;;;7.20;77.16;100989.17;105954;1250;72811;-88
2023/04/07 02:32:07;;;;;;;5.10;4.40;;;;;;;7.23;77.24;100992.52;106041;1256;64372;-86
2023/04/07 02:34:36;;;;;;;5.30;4.80;;;;;;;7.23;77.02;100994.05;105993;1251;73465;-86
2023/04/07 02:37:10;;;;;;;5.70;5.20;;;;;;;7.22;76.99;100991.16;105972;1256;61402;-86
2023/04/07 02:39:39;;;;;;;7.30;4.80;;;;;;;7.22;77.03;100992.02;105995;1250;61321;-85
2023/04/07 02:42:07;;;;;;;8.70;5.10;;;;;;;7.23;76.84;100989.02;106973;1250;74811;-88
2023/04/07 02:44:36;;;;;;;5.50;5.00;;;;;;;7.21;76.57;100985.78;106152;1254;64700;-88
2023/04/07 02:47:04;;;;;;;5.20;4.50;;;;;;;7.19;76.74;100982.91;106094;1250;72630;-85
2023/04/07 02:49:33;;;;;;;5.00;4.40;;;;;;;7.17;76.92;100983.18;105955;1254;62210;-86
2023/04/07 02:52:02;;;;;;;4.50;4.00;;;;;;;7.16;77.11;100983.75;105931;1251;61191;-87
2023/04/07 02:54:31;;;;;;;4.70;4.30;;;;;;;7.14;77.16;100983.84;105984;1255;74824;-88
2023/04/07 02:57:00;;;;;;;5.30;4.80;;;;;;;7.11;77.05;100981.01;106017;1250;65227;-87
2023/04/07 02:59:32;;;;;;;5.60;5.10;;;;;;;7.09;77.33;100980.04;105978;1250;73684;-87
2023/04/07 03:02:02;;;;;;;6.30;5.00;;;;;;;7.08;77.76;100981.83;106089;1254;61197;-87
2023/04/07 03:04:33;;;;;;;5.30;4.80;;;;;;;7.08;77.62;100985.45;106570;1250;61055;-85
2023/04/07 03:07:01;;;;;;;8.80;5.30;;;;;;;7.09;77.50;100986.81;105925;1251;74748;-86
2023/04/07 03:09:32;;;;;;;6.50;5.20;;;;;;;7.10;77.32;100989.40;106010;1254;63828;-86
2023/04/07 03:12:02;;;;;;;5.90;5.40;;;;;;;7.06;77.16;100982.92;105975;1250;73747;-88
2023/04/07 03:14:33;;;;;;;8.00;5.50;;;;;;;7.02;77.45;100987.04;105959;1254;62198;-87
2023/04/07 03:17:10;;;;;;;6.90;4.30;;;;;;;7.00;77.53;100985.77;106110;1255;61421;-86
2023/04/07 03:19:39;;;;;;;5.00;4.50;;;;;;;6.98;77.75;100989.33;106039;1250;74797;-87
2023/04/07 03:22:08;;;;;;;6.50;4.20;;;;;;;6.95;77.90;100992.89;106369;1250;65238;-85
2023/04/07 03:24:39;;;;;;;5.50;5.00;;;;;;;6.98;78.02;100989.83;107065;1251;73382;-89
2023/04/07 03:27:08;;;;;;;6.40;4.70;;;;;;;7.05;78.12;100989.38;105953;1250;60547;-86
2023/04/07 03:29:41;;;;;;;5.70;5.20;;;;;;;7.12;77.96;100993.28;106749;1250;61048;-86
2023/04/07 03:32:11;;;;;;;5.70;5.20;;;;;;;7.17;77.86;100993.09;107433;1250;75029;-84
2023/04/07 03:34:39;;;;;;;9.20;5.50;;;;;;;7.21;77.43;100994.13;108163;1252;63804;-85
2023/04/07 03:37:08;;;;;;;5.80;5.30;;;;;;;7.25;77.21;100997.48;106333;1251;72632;-85
2023/04/07 03:39:39;;;;;;;7.00;6.10;;;;;;;7.27;77.11;100999.13;106489;1250;60611;-86
2023/04/07 03:42:27;;;;;;;6.70;6.10;;;;;;;7.26;76.81;101002.66;106708;1250;60489;-86
2023/04/07 03:45:04;;;;;;;7.50;5.20;;;;;;;7.21;76.90;101001.78;106192;1251;73818;-86
2023/04/07 03:47:33;;;;;;;4.80;4.30;;;;;;;7.20;77.06;101007.42;106292;1250;64591;-84
2023/04/07 03:50:03;;;;;;;5.30;4.80;;;;;;;7.20;77.05;101007.07;106121;1253;73367;-86
2023/04/07 03:52:34;;;;;;;5.50;4.40;;;;;;;7.19;77.36;101012.64;106118;1250;582607;-86
2023/04/07 03:56:00;;;;;;;5.40;4.90;;;;;;;7.25;77.55;101013.66;102741;1292;600215;-84
2023/04/07 03:58:59;;;;;;;6.00;5.40;;;;;;;7.28;77.59;101011.78;104830;1271;61069;-87
2023/04/07 04:01:35;;;;;;;6.20;5.60;;;;;;;7.36;77.46;101013.03;105481;1266;60890;-87
2023/04/07 04:04:08;;;;;;;6.10;5.40;;;;;;;7.42;77.19;101010.71;105233;1266;72175;-87
2023/04/07 04:06:37;;;;;;;7.80;6.10;;;;;;;7.45;76.75;101010.75;105039;1266;63764;-87
2023/04/07 04:09:13;;;;;;;7.10;6.40;;;;;;;7.48;77.00;101012.89;104644;1264;647065;-88
2023/04/07 04:11:45;;;;;;;8.90;6.60;;;;;;;7.50;76.84;101013.00;106631;1264;59227;-85
2023/04/07 04:14:20;;;;;;;6.10;5.50;;;;;;;7.50;76.74;101013.70;106455;1266;61342;-85
2023/04/07 04:16:57;;;;;;;8.30;7.00;;;;;;;7.49;76.76;101015.13;107688;1257;71079;-85
2023/04/07 04:19:35;;;;;;;6.80;4.80;;;;;;;7.48;76.77;101020.18;106604;1256;63943;-88
2023/04/07 04:22:10;;;;;;;5.10;4.60;;;;;;;7.44;76.82;101022.09;106144;1259;75066;-85
2023/04/07 04:24:46;;;;;;;5.80;5.30;;;;;;;7.44;76.83;101026.25;105811;1258;60310;-89
2023/04/07 04:27:16;;;;;;;8.10;6.20;;;;;;;7.46;76.85;101030.92;105803;1260;60434;-86
2023/04/07 04:29:47;;;;;;;8.10;6.50;;;;;;;7.49;77.30;101035.45;105800;1255;73069;-86
2023/04/07 04:32:17;;;;;;;6.30;5.70;;;;;;;7.54;77.60;101033.38;105596;1256;63793;-87
2023/04/07 04:34:51;;;;;;;7.60;6.00;;;;;;;7.56;77.05;101034.98;105827;1258;73413;-87
2023/04/07 04:37:20;;;;;;;6.50;5.90;;;;;;;7.57;76.98;101036.02;105832;1261;60336;-88
2023/04/07 04:39:49;;;;;;;7.20;6.50;;;;;;;7.55;76.85;101032.27;106173;1256;61190;-86
2023/04/07 04:42:21;;;;;;;6.60;5.60;;;;;;;7.55;76.61;101035.20;106338;1259;74018;-88
2023/04/07 04:44:51;;;;;;;5.30;4.60;;;;;;;7.55;76.66;101035.59;106126;1257;64697;-86
2023/04/07 04:47:21;;;;;;;5.20;4.00;;;;;;;7.53;76.45;101034.27;106534;1259;73397;-86
2023/04/07 04:49:50;;;;;;;10.90;5.80;;;;;;;7.53;76.27;101033.39;106201;1258;60349;-86
2023/04/07 04:52:18;;;;;;;5.90;4.50;;;;;;;7.54;76.30;101033.33;106353;1257;61312;-87
2023/04/07 04:54:52;;;;;;;7.30;5.00;;;;;;;7.59;76.12;101031.06;106164;1254;73935;-85
2023/04/07 04:57:21;;;;;;;5.20;4.80;;;;;;;7.63;75.88;101035.08;106048;1259;64510;-86
2023/04/07 04:59:58;;;;;;;7.70;5.80;;;;;;;7.64;75.72;101036.08;106277;1254;74111;-87
2023/04/07 05:02:30;;;;;;;5.30;4.80;;;;;;;7.66;75.31;101030.79;105929;1258;61447;-88
2023/04/07 05:05:00;;;;;;;5.30;4.80;;;;;;;7.66;75.24;101028.50;106010;1254;60321;-88
2023/04/07 05:07:30;;;;;;;6.10;4.50;;;;;;;7.66;75.10;101029.20;105902;1258;73758;-85
2023/04/07 05:10:01;;;;;;;5.40;4.90;;;;;;;7.64;74.84;101029.63;106068;1257;64764;-86
2023/04/07 05:12:31;;;;;;;6.10;4.90;;;;;;;7.64;75.09;101028.59;105929;1258;73643;-86
2023/04/07 05:15:08;;;;;;;4.70;4.30;;;;;;;7.62;75.01;101029.88;105849;1253;62236;-87
2023/04/07 05:17:37;;;;;;;3.80;3.40;;;;;;;7.61;75.09;101033.41;105981;1253;61187;-86
2023/04/07 05:20:09;;;;;;;7.20;4.70;;;;;;;7.65;75.19;101037.61;106450;1257;74008;-87
2023/04/07 05:22:40;;;;;;;4.60;4.10;;;;;;;7.68;75.33;101043.37;106544;1253;63596;-85
2023/04/07 05:25:15;;;;;;;4.60;4.20;;;;;;;7.74;75.18;101042.30;106208;1253;72687;-86
2023/04/07 05:27:45;;;;;;;4.80;4.00;;;;;;;7.80;74.83;101044.80;106211;1259;61115;-86
2023/04/07 05:30:21;;;;;;;4.90;4.50;;;;;;;7.85;74.87;101044.60;106176;1259;61041;-86
2023/04/07 05:32:51;;;;;;;4.90;3.30;;;;;;;7.89;74.34;101047.73;106356;1253;73065;-87
2023/04/07 05:35:31;;;;;;;7.70;3.40;;;;;;;7.90;74.05;101049.24;106401;1253;64435;-86
2023/04/07 05:38:04;;;;;;;3.60;3.30;;;;;;;7.83;73.76;101053.92;106302;1253;73430;-87
2023/04/07 05:40:33;;;;;;;4.60;4.20;;;;;;;7.77;73.76;101055.38;106537;1253;59606;-85
2023/04/07 05:43:10;;;;;;;5.40;3.40;;;;;;;7.72;73.96;101056.64;106714;1253;60282;-83
2023/04/07 05:45:52;;;;;;;3.70;3.40;;;;;;;7.70;74.02;101057.06;107454;1253;74816;-86
2023/04/07 05:48:22;;;;;;;4.90;3.10;;;;;;;7.68;74.10;101055.05;106740;1257;64584;-88
2023/04/07 05:50:51;;;;;;;4.20;2.70;;;;;;;7.69;74.27;101056.75;107017;1253;73658;-86
2023/04/07 05:53:21;;;;;;;4.50;3.10;;;;;;;7.71;74.27;101053.70;106844;1253;61451;-88
2023/04/07 05:55:51;;;;;;;2.90;2.70;;;;;;;7.74;74.35;101059.71;107228;1253;61766;-85
2023/04/07 05:58:26;;;;;;;4.10;3.20;;;;;;;7.78;74.59;101057.59;107128;1257;73173;-85
2023/04/07 06:00:59;;;;;;;4.30;2.70;;;;;;;7.81;74.39;101051.23;106570;1256;64807;-86
2023/04/07 06:03:30;;;;;;;3.40;3.10;;;;;;;7.80;74.71;101055.62;106356;1256;73647;-86
2023/04/07 06:06:10;;;;;;;18.30;13.30;;;;;;;7.79;74.68;101052.70;106856;1257;61157;-85
2023/04/07 06:08:40;;;;;;;73.30;50.50;;;;;;;7.76;74.92;101055.59;106775;1258;60155;-87
2023/04/07 06:11:11;;;;;;;5.90;3.90;;;;;;;7.71;75.08;101061.02;106465;1254;73028;-87
2023/04/07 06:13:39;;;;;;;2.90;2.70;;;;;;;7.66;75.17;101063.13;106295;1253;64804;-86
2023/04/07 06:16:17;;;;;;;3.10;2.80;;;;;;;7.67;75.40;101068.13;106491;1257;73724;-84
2023/04/07 06:18:52;;;;;;;2.60;2.40;;;;;;;7.70;75.62;101071.48;107097;1256;61492;-85
2023/04/07 06:21:21;;;;;;;3.30;3.00;;;;;;;7.72;75.46;101075.63;106744;1253;60308;-89
2023/04/07 06:23:54;;;;;;;6.70;2.40;;;;;;;7.74;75.72;101070.64;106504;1260;73934;-86
2023/04/07 06:26:23;;;;;;;3.80;2.40;;;;;;;7.80;75.68;101072.65;106204;1254;62455;-88
2023/04/07 06:28:51;;;;;;;5.70;2.90;;;;;;;7.88;75.63;101078.08;106148;1257;73625;-87
2023/04/07 06:31:20;;;;;;;3.40;3.10;;;;;;;7.94;75.52;101078.36;106150;1254;61386;-86
2023/04/07 06:33:50;;;;;;;6.50;3.30;;;;;;;7.97;75.40;101076.31;106096;1258;61044;-87
2023/04/07 06:36:19;;;;;;;7.20;3.30;;;;;;;7.98;75.08;101075.93;106133;1259;72879;-86
2023/04/07 06:38:51;;;;;;;4.90;2.90;;;;;;;8.00;74.89;101077.23;106082;1257;64563;-87
2023/04/07 06:41:20;;;;;;;5.30;3.50;;;;;;;7.97;74.81;101077.69;106238;1255;73634;-86
2023/04/07 06:43:51;;;;;;;3.20;2.90;;;;;;;7.97;74.64;101076.48;106379;1256;60879;-87
2023/04/07 06:46:20;;;;;;;3.90;2.90;;;;;;;7.96;74.64;101081.08;106662;1254;60030;-86
2023/04/07 06:48:49;;;;;;;4.40;2.50;;;;;;;7.97;74.83;101086.42;106668;1253;73882;-84
2023/04/07 06:51:17;;;;;;;3.30;2.90;;;;;;;7.98;74.37;101085.67;106758;1254;64656;-85
2023/04/07 06:53:47;;;;;;;5.20;4.70;;;;;;;7.99;74.55;101087.04;106412;1256;73593;-86
2023/04/07 06:56:16;;;;;;;38.90;28.70;;;;;;;8.00;74.39;101091.52;106204;1257;61352;-86
2023/04/07 06:58:46;;;;;;;5.40;3.90;;;;;;;8.01;74.83;101088.86;106198;1253;61340;-85
2023/04/07 07:01:15;;;;;;;4.60;3.40;;;;;;;8.03;75.06;101088.09;106227;1256;74007;-87
2023/04/07 07:03:46;;;;;;;4.90;3.30;;;;;;;8.02;75.26;101083.59;106088;1254;65291;-87
2023/04/07 07:06:31;;;;;;;4.50;3.90;;;;;;;8.00;75.14;101082.61;107775;1254;73622;-87
2023/04/07 07:09:07;;;;;;;6.00;3.90;;;;;;;8.03;75.48;101084.23;105996;1262;61228;-84
2023/04/07 07:11:44;;;;;;;6.10;5.10;;;;;;;8.07;75.71;101086.86;106107;1262;61643;-85
2023/04/07 07:14:14;;;;;;;4.30;3.90;;;;;;;8.13;75.82;101087.13;106077;1260;73865;-86
2023/04/07 07:16:43;;;;;;;4.50;3.30;;;;;;;8.22;75.65;101087.62;106076;1263;63794;-88
2023/04/07 07:19:16;;;;;;;5.40;3.60;;;;;;;8.35;75.57;101082.35;105965;1262;73451;-85
2023/04/07 07:21:45;;;;;;;6.30;3.50;;;;;;;8.45;75.71;101081.42;105938;1257;60506;-85
2023/04/07 07:24:14;;;;;;;6.20;4.10;;;;;;;8.53;75.97;101084.77;106099;1260;61069;-88
2023/04/07 07:26:43;;;;;;;4.40;4.00;;;;;;;8.61;75.72;101085.62;106484;1257;73808;-87
2023/04/07 07:29:12;;;;;;;7.30;4.40;;;;;;;8.69;75.76;101082.13;106066;1263;63843;-88
2023/04/07 07:31:40;;;;;;;6.10;4.10;;;;;;;8.76;75.20;101083.07;105845;1258;72626;-85
2023/04/07 07:34:09;;;;;;;4.70;4.30;;;;;;;8.79;75.22;101086.20;105999;1261;61397;-88
2023/04/07 07:36:38;;;;;;;6.40;4.40;;;;;;;8.80;75.17;101083.55;105867;1260;61541;-88
2023/04/07 07:39:06;;;;;;;4.40;3.90;;;;;;;8.78;75.05;101082.43;106002;1260;72939;-86
2023/04/07 07:41:35;;;;;;;4.60;3.70;;;;;;;8.79;75.48;101083.45;106280;1255;64042;-86
2023/04/07 07:44:03;;;;;;;6.70;3.80;;;;;;;8.83;75.62;101082.23;106191;1257;73676;-85
2023/04/07 07:46:32;;;;;;;6.40;5.80;;;;;;;8.85;75.55;101080.20;105903;1255;60030;-88
2023/04/07 07:49:00;;;;;;;7.60;5.40;;;;;;;8.86;75.33;101083.98;106080;1256;61246;-87
2023/04/07 07:51:29;;;;;;;6.60;4.50;;;;;;;8.91;75.22;101083.58;106118;1257;74093;-87
2023/04/07 07:53:57;;;;;;;6.40;5.50;;;;;;;8.96;75.02;101082.48;106249;1257;63795;-88
2023/04/07 07:56:26;;;;;;;6.40;4.90;;;;;;;9.00;74.94;101078.95;106193;1260;73662;-86
2023/04/07 07:58:55;;;;;;;8.50;6.40;;;;;;;9.04;75.20;101080.52;106005;1255;60420;-90
2023/04/07 08:01:27;;;;;;;10.40;6.30;;;;;;;9.06;75.08;101082.21;106261;1258;61025;-86
2023/04/07 08:03:56;;;;;;;21.00;13.30;;;;;;;9.00;75.01;101088.22;106625;1254;74072;-85
2023/04/07 08:06:28;;;;;;;7.10;6.20;;;;;;;8.95;75.52;101089.14;106418;1254;65114;-89
2023/04/07 08:08:57;;;;;;;9.20;5.00;;;;;;;8.96;75.70;101092.23;106497;1253;73654;-88
2023/04/07 08:11:26;;;;;;;8.50;5.40;;;;;;;8.97;75.88;101093.06;106834;1252;62366;-89
2023/04/07 08:13:54;;;;;;;7.00;5.10;;;;;;;9.03;76.38;101094.73;106459;1266;60387;-88
2023/04/07 08:16:23;;;;;;;7.10;5.40;;;;;;;9.07;76.29;101093.31;106336;1257;75325;-88
2023/04/07 08:18:52;;;;;;;7.80;5.60;;;;;;;9.06;76.54;101094.41;106682;1257;64004;-87
2023/04/07 08:21:20;;;;;;;8.40;5.10;;;;;;;9.08;76.57;101090.33;106435;1257;73989;-85
2023/04/07 08:23:49;;;;;;;8.70;6.60;;;;;;;9.13;76.63;101094.60;106488;1257;61849;-87
2023/04/07 08:26:18;;;;;;;10.40;7.00;;;;;;;9.18;76.86;101091.23;107053;1254;60549;-87
2023/04/07 08:28:52;;;;;;;9.10;6.70;;;;;;;9.23;77.18;101092.95;106802;1254;75204;-86
2023/04/07 08:31:20;;;;;;;6.90;6.20;;;;;;;9.26;77.28;101096.94;106630;1254;63484;-87
2023/04/07 08:33:52;;;;;;;9.80;7.70;;;;;;;9.30;77.45;101093.28;106471;1259;73757;-86
2023/04/07 08:36:23;;;;;;;10.20;5.90;;;;;;;9.33;77.84;101092.28;106476;1254;61632;-88
2023/04/07 08:38:51;;;;;;;6.60;5.10;;;;;;;9.35;78.28;101091.45;106323;1258;61052;-87
2023/04/07 08:41:44;;;;;;;9.80;4.80;;;;;;;9.40;78.94;101090.17;106064;1257;74675;-87
2023/04/07 08:44:12;;;;;;;10.00;5.70;;;;;;;9.44;78.93;101088.09;106163;1257;63992;-89
2023/04/07 08:46:43;;;;;;;9.10;5.10;;;;;;;9.45;78.88;101092.07;106618;1254;71160;-89
2023/04/07 08:49:12;;;;;;;9.10;6.00;;;;;;;9.47;79.04;101096.13;106487;1254;60864;-88
2023/04/07 08:51:48;;;;;;;6.70;5.50;;;;;;;9.48;79.13;101093.84;106307;1254;60712;-88
2023/04/07 08:54:17;;;;;;;9.80;6.70;;;;;;;9.45;79.28;101098.48;106929;1254;75347;-89
2023/04/07 08:56:47;;;;;;;9.30;6.50;;;;;;;9.45;79.81;101096.08;106477;1253;64004;-88
2023/04/07 08:59:17;;;;;;;10.40;6.10;;;;;;;9.43;80.14;101096.35;106822;1254;73433;-86
2023/04/07 09:01:46;;;;;;;11.80;5.80;;;;;;;9.43;80.23;101093.71;106458;1256;62033;-86
2023/04/07 09:04:15;;;;;;;8.90;6.00;;;;;;;9.45;80.29;101091.88;106853;1254;61359;-87
2023/04/07 09:06:45;;;;;;;8.50;5.70;;;;;;;9.49;80.41;101090.27;106660;1256;74230;-85
2023/04/07 09:09:13;;;;;;;11.60;7.10;;;;;;;9.53;80.05;101086.08;106193;1252;64021;-86
2023/04/07 09:11:43;;;;;;;10.50;7.40;;;;;;;9.54;80.00;101089.02;106299;1257;73557;-87
2023/04/07 09:14:12;;;;;;;12.40;7.60;;;;;;;9.51;80.06;101086.88;106991;1254;62026;-89
2023/04/07 09:16:41;;;;;;;13.30;6.60;;;;;;;9.49;80.35;101086.65;106938;1254;60563;-87
2023/04/07 09:19:11;;;;;;;15.70;8.10;;;;;;;9.50;80.65;101085.69;107225;1252;73829;-86
2023/04/07 09:21:47;;;;;;;7.70;6.40;;;;;;;9.52;80.83;101082.63;106929;1254;63905;-87
2023/04/07 09:24:24;;;;;;;11.20;7.70;;;;;;;9.54;81.05;101081.13;106408;1257;72643;-85
2023/04/07 09:27:13;;;;;;;11.20;7.10;;;;;;;9.55;81.14;101083.70;106585;1252;61990;-86
2023/04/07 09:29:46;;;;;;;12.80;7.70;;;;;;;9.58;81.39;101084.77;106450;1253;61356;-85
2023/04/07 09:32:43;;;;;;;11.60;7.80;;;;;;;9.61;81.33;101084.17;106417;1257;74951;-86
2023/04/07 09:35:11;;;;;;;11.30;8.20;;;;;;;9.61;81.46;101082.73;106432;1255;63857;-87
2023/04/07 09:37:41;;;;;;;12.50;8.30;;;;;;;9.64;81.71;101078.05;106478;1253;73632;-87
2023/04/07 09:40:10;;;;;;;10.30;8.00;;;;;;;9.66;82.05;101075.70;106797;1256;62353;-88
2023/04/07 09:42:48;;;;;;;13.60;9.00;;;;;;;9.65;82.29;101076.77;106816;1253;60441;-86
2023/04/07 09:45:26;;;;;;;8.00;7.10;;;;;;;9.65;82.49;101074.35;106662;1254;73756;-85
2023/04/07 09:48:07;;;;;;;12.20;8.50;;;;;;;9.58;82.86;101077.46;106557;1254;64756;-87
2023/04/07 09:50:39;;;;;;;13.20;8.90;;;;;;;9.53;83.33;101080.50;107106;1254;72677;-88
2023/04/07 09:53:09;;;;;;;14.10;8.40;;;;;;;9.51;83.78;101076.91;106624;1253;63122;-89
2023/04/07 09:55:39;;;;;;;10.20;8.20;;;;;;;9.54;83.91;101078.02;106915;1253;61141;-83
2023/04/07 09:58:07;;;;;;;9.10;7.40;;;;;;;9.57;84.11;101082.27;106890;1254;74902;-87
2023/04/07 10:00:38;;;;;;;9.80;7.50;;;;;;;9.57;84.41;101079.77;107023;1253;64572;-87
2023/04/07 10:03:06;;;;;;;11.00;7.30;;;;;;;9.58;84.74;101069.96;106566;1254;72636;-88
2023/04/07 10:05:35;;;;;;;11.10;8.40;;;;;;;9.60;85.26;101070.94;106391;1257;60435;-88
2023/04/07 10:08:08;;;;;;;8.70;7.60;;;;;;;9.65;85.55;101074.86;106519;1252;61436;-84
2023/04/07 10:10:42;;;;;;;7.80;6.00;;;;;;;9.71;85.61;101074.39;106524;1257;74503;-86
2023/04/07 10:13:11;;;;;;;10.40;7.20;;;;;;;9.73;85.59;101080.38;106502;1254;64142;-86
2023/04/07 10:15:40;;;;;;;11.80;7.10;;;;;;;9.78;86.20;101081.87;106214;1252;72372;-87
2023/04/07 10:18:11;;;;;;;10.00;6.80;;;;;;;9.86;85.82;101085.32;106127;1257;62829;-88
2023/04/07 10:20:41;;;;;;;9.30;7.00;;;;;;;9.98;85.76;101085.14;106417;1255;60502;-86
2023/04/07 10:23:16;;;;;;;8.10;6.70;;;;;;;10.07;85.77;101085.36;107046;1254;73769;-85
2023/04/07 10:25:44;;;;;;;7.00;6.20;;;;;;;10.15;85.34;101082.70;107049;1257;62643;-87
2023/04/07 10:28:16;;;;;;;7.50;6.40;;;;;;;10.20;85.21;101085.41;107013;1257;73537;-86
2023/04/07 10:30:46;;;;;;;11.30;8.30;;;;;;;10.26;85.15;101084.41;106737;1257;61366;-86
2023/04/07 10:33:15;;;;;;;11.70;7.40;;;;;;;10.31;84.86;101082.59;106658;1254;61640;-86
2023/04/07 10:36:06;;;;;;;10.30;6.90;;;;;;;10.39;84.48;101082.02;106545;1257;74766;-87
2023/04/07 10:38:35;;;;;;;8.80;6.90;;;;;;;10.44;84.34;101083.50;106440;1257;63810;-86
2023/04/07 10:41:35;;;;;;;7.30;6.00;;;;;;;10.46;83.99;101080.58;106493;1256;72673;-84
2023/04/07 10:44:09;;;;;;;8.90;6.80;;;;;;;10.45;83.69;101083.09;106456;1254;60957;-89
2023/04/07 10:46:44;;;;;;;8.30;6.70;;;;;;;10.42;83.78;101078.17;106469;1253;61011;-87
2023/04/07 10:49:15;;;;;;;9.20;6.50;;;;;;;10.46;83.78;101075.88;107245;1254;75004;-87
2023/04/07 10:52:48;;;;;;;6.80;6.10;;;;;;;10.56;83.79;101071.52;107591;1256;63788;-87
2023/04/07 10:55:37;;;;;;;7.90;7.00;;;;;;;10.71;83.47;101073.16;106036;1260;73681;-85
2023/04/07 10:58:17;;;;;;;8.40;6.80;;;;;;;10.78;83.17;101070.83;105635;1260;60681;-89
2023/04/07 11:01:04;;;;;;;9.40;7.60;;;;;;;10.85;83.03;101071.20;105787;1259;61824;-87
2023/04/07 11:03:37;;;;;;;8.50;7.40;;;;;;;10.89;82.75;101072.20;106215;1261;75024;-86
2023/04/07 11:06:13;;;;;;;13.00;7.50;;;;;;;10.93;82.61;101071.27;106344;1259;64927;-86
2023/04/07 11:09:13;;;;;;;13.10;8.80;;;;;;;11.04;82.55;101064.23;107375;1259;73715;-85
2023/04/07 11:11:50;;;;;;;13.00;8.40;;;;;;;11.19;82.67;101063.20;106427;1261;60790;-88
2023/04/07 11:14:29;;;;;;;13.20;9.00;;;;;;;11.31;82.61;101058.35;106205;1261;60488;-87
2023/04/07 11:16:59;;;;;;;12.80;8.60;;;;;;;11.44;83.04;101057.95;105996;1260;74759;-87
2023/04/07 11:19:28;;;;;;;12.90;9.00;;;;;;;11.61;82.57;101056.14;106036;1263;63778;-88
2023/04/07 11:22:15;;;;;;;12.30;9.20;;;;;;;11.74;81.76;101056.41;106034;1261;72708;-89
2023/04/07 11:25:00;;;;;;;13.10;9.30;;;;;;;11.85;81.10;101048.41;106326;1259;61212;-87
2023/04/07 11:27:30;;;;;;;13.30;10.00;;;;;;;11.97;80.87;101044.79;106651;1259;60451;-86
2023/04/07 11:29:58;;;;;;;10.50;8.80;;;;;;;12.11;80.76;101041.67;106736;1252;74656;-85
2023/04/07 11:32:28;;;;;;;14.20;9.70;;;;;;;12.28;80.61;101038.20;106980;1252;63772;-86
2023/04/07 11:34:57;;;;;;;12.30;8.50;;;;;;;12.46;79.81;101036.39;107116;1254;73465;-87
2023/04/07 11:37:27;;;;;;;9.30;8.00;;;;;;;12.63;79.09;101039.39;107160;1253;61892;-87
2023/04/07 11:39:59;;;;;;;11.50;8.40;;;;;;;12.74;78.60;101039.46;108322;1254;60314;-86
2023/04/07 11:42:38;;;;;;;12.70;8.80;;;;;;;12.79;78.06;101034.39;108158;1253;73913;-86
2023/04/07 11:45:26;;;;;;;30.70;25.80;;;;;;;12.83;78.15;101034.09;106894;1256;64819;-86